Time;durP1;ratioP1;P1;durP2;ratioP2;P2;SDS_P1;SDS_P2;PMS_P1;PMS_P2;Temp;Humidity;BMP_temperature;BMP_pressure;BME280_temperature;BME280_humidity;BME280_pressure;Samples;Min_cycle;Max_cycle;Signal;HPM_P1;HPM_P2
2023/04/01 00:02:07;;;;;;;0.95;0.93;;;7.60;99.90;;;;;;5014971;28;20056;-78
2023/04/01 00:04:32;;;;;;;1.33;1.23;;;7.50;99.90;;;;;;5014743;28;20021;-78
2023/04/01 00:07:00;;;;;;;1.83;1.30;;;7.60;99.90;;;;;;5032933;28;20033;-78
2023/04/01 00:09:25;;;;;;;2.28;1.20;;;7.60;99.90;;;;;;5014808;28;20108;-78
2023/04/01 00:11:51;;;;;;;2.03;0.98;;;7.50;99.90;;;;;;5014956;28;20060;-78
2023/04/01 00:14:17;;;;;;;1.38;1.27;;;7.50;99.90;;;;;;5032419;28;20029;-78
2023/04/01 00:16:43;;;;;;;2.63;1.10;;;7.50;99.90;;;;;;5014534;28;20425;-78
2023/04/01 00:19:08;;;;;;;2.25;1.42;;;7.50;99.90;;;;;;5032219;28;20034;-78
2023/04/01 00:21:34;;;;;;;0.93;0.90;;;7.50;99.90;;;;;;5014955;28;20033;-79
2023/04/01 00:24:00;;;;;;;2.65;1.33;;;7.50;99.90;;;;;;5014989;28;20020;-78
2023/04/01 00:26:26;;;;;;;1.92;1.40;;;7.60;99.90;;;;;;5032130;28;20026;-78
2023/04/01 00:28:52;;;;;;;5.20;1.17;;;7.50;99.90;;;;;;5031867;28;20032;-78
2023/04/01 00:31:18;;;;;;;1.25;1.10;;;7.50;99.90;;;;;;5032639;28;20103;-78
2023/04/01 00:33:44;;;;;;;1.40;1.30;;;7.50;99.90;;;;;;5014739;28;20040;-78
2023/04/01 00:36:11;;;;;;;4.00;1.13;;;7.50;99.90;;;;;;5032159;28;20021;-78
2023/04/01 00:38:37;;;;;;;2.20;1.50;;;7.50;99.90;;;;;;5031354;28;20371;-78
2023/04/01 00:41:03;;;;;;;1.27;1.17;;;7.50;99.90;;;;;;5032655;28;20108;-78
2023/04/01 00:43:30;;;;;;;2.35;1.67;;;7.50;99.90;;;;;;5014747;28;20083;-78
2023/04/01 00:45:56;;;;;;;1.95;1.80;;;7.40;99.90;;;;;;5014091;28;20545;-78
2023/04/01 00:48:32;;;;;;;2.83;2.13;;;7.40;99.90;;;;;;5032139;28;20033;-79
2023/04/01 00:51:04;;;;;;;2.40;2.17;;;7.50;99.90;;;;;;5014455;28;20470;-78
2023/04/01 00:53:31;;;;;;;3.78;1.80;;;7.50;99.90;;;;;;5018121;28;20057;-78
2023/04/01 00:56:02;;;;;;;1.98;1.35;;;7.50;99.90;;;;;;5017993;28;20075;-78
2023/04/01 00:58:31;;;;;;;1.25;1.15;;;7.50;99.90;;;;;;5035796;28;20433;-79
2023/04/01 01:00:59;;;;;;;1.60;1.50;;;7.50;99.90;;;;;;5018562;28;20032;-79
2023/04/01 01:03:25;;;;;;;2.58;1.33;;;7.50;99.90;;;;;;5036006;28;20208;-78
2023/04/01 01:06:02;;;;;;;2.50;1.30;;;7.50;99.90;;;;;;5018055;28;20578;-78
2023/04/01 01:08:58;;;;;;;2.83;1.10;;;7.40;99.90;;;;;;5035664;28;20017;-78
2023/04/01 01:11:35;;;;;;;2.63;1.58;;;7.40;99.90;;;;;;5018337;28;20116;-78
2023/04/01 01:14:23;;;;;;;1.50;1.40;;;7.40;99.90;;;;;;5035824;28;20037;-78
2023/04/01 01:16:59;;;;;;;5.50;1.67;;;7.50;99.90;;;;;;5017105;28;20029;-78
2023/04/01 01:19:47;;;;;;;;;;;7.40;99.90;;;;;;5036186;28;20017;-78
2023/04/01 01:22:47;;;;;;;3.70;1.80;;;7.50;99.90;;;;;;5035833;28;19998;-78
2023/04/01 01:25:18;;;;;;;1.95;1.40;;;7.40;99.90;;;;;;5017732;28;20455;-78
2023/04/01 01:27:56;;;;;;;1.80;1.70;;;7.50;99.90;;;;;;5017722;28;20112;-78
2023/04/01 01:30:47;;;;;;;1.80;1.65;;;7.40;99.90;;;;;;5018192;28;20033;-78
2023/04/01 01:33:31;;;;;;;1.77;1.67;;;7.40;99.90;;;;;;5035621;28;20048;-79
2023/04/01 01:36:00;;;;;;;1.88;1.42;;;7.30;99.90;;;;;;5017810;28;20033;-78
2023/04/01 01:38:33;;;;;;;5.30;1.80;;;7.30;99.90;;;;;;5016069;28;20056;-79
2023/04/01 01:41:01;;;;;;;1.70;1.48;;;7.30;99.90;;;;;;5035479;28;20021;-79
2023/04/01 01:43:32;;;;;;;1.63;1.48;;;7.30;99.90;;;;;;5035483;28;20025;-78
2023/04/01 01:46:02;;;;;;;1.50;1.40;;;7.20;99.90;;;;;;5035131;28;20087;-78
2023/04/01 01:48:30;;;;;;;1.80;1.60;;;7.30;99.90;;;;;;5017340;28;20022;-78
2023/04/01 01:50:56;;;;;;;2.05;1.40;;;7.30;99.90;;;;;;5017389;28;20033;-78
2023/04/01 01:53:22;;;;;;;1.15;1.10;;;7.30;99.90;;;;;;5017603;28;20036;-78
2023/04/01 01:55:48;;;;;;;4.03;2.13;;;7.20;99.90;;;;;;5016963;28;20037;-78
2023/04/01 01:58:22;;;;;;;2.38;1.90;;;7.30;99.90;;;;;;5035040;28;20014;-78
2023/04/01 02:00:55;;;;;;;2.40;2.20;;;7.20;99.90;;;;;;5017419;28;20022;-78
2023/04/01 02:03:23;;;;;;;2.08;1.83;;;7.20;99.90;;;;;;5034297;28;20053;-79
2023/04/01 02:05:53;;;;;;;1.52;1.42;;;7.10;99.90;;;;;;5016834;28;20568;-79
2023/04/01 02:08:26;;;;;;;1.70;1.60;;;7.00;99.90;;;;;;5034164;28;20033;-78
2023/04/01 02:11:01;;;;;;;2.10;1.65;;;7.10;99.90;;;;;;5034483;28;20025;-78
2023/04/01 02:13:44;;;;;;;1.70;1.48;;;7.00;99.90;;;;;;5017016;28;20037;-78
2023/04/01 02:16:20;;;;;;;4.40;1.70;;;7.10;99.90;;;;;;5016137;28;20075;-78
2023/04/01 02:18:50;;;;;;;3.90;1.73;;;7.00;99.90;;;;;;5034052;28;20052;-78
2023/04/01 02:21:18;;;;;;;2.28;2.08;;;7.00;99.90;;;;;;5017273;28;20018;-78
2023/04/01 02:23:46;;;;;;;1.60;1.42;;;7.00;99.90;;;;;;5034789;28;20397;-79
2023/04/01 02:26:14;;;;;;;2.17;1.65;;;6.90;99.90;;;;;;5016706;28;20079;-79
2023/04/01 02:28:42;;;;;;;2.03;1.73;;;6.90;99.90;;;;;;5016828;28;20021;-78
2023/04/01 02:31:10;;;;;;;1.58;1.48;;;6.80;99.90;;;;;;5016897;28;20025;-78
2023/04/01 02:33:38;;;;;;;2.33;1.38;;;6.70;99.90;;;;;;5034522;28;20397;-79
2023/04/01 02:36:04;;;;;;;2.08;1.50;;;6.70;99.90;;;;;;5016428;28;20114;-78
2023/04/01 02:38:30;;;;;;;2.75;1.80;;;6.70;99.90;;;;;;5015307;28;20026;-78
2023/04/01 02:41:00;;;;;;;3.22;1.80;;;6.70;99.90;;;;;;5016480;28;20525;-78
2023/04/01 02:43:27;;;;;;;3.25;2.00;;;6.80;99.90;;;;;;5034273;28;20084;-79
2023/04/01 02:45:53;;;;;;;2.30;2.13;;;6.80;99.90;;;;;;5033898;28;20025;-79
2023/04/01 02:48:18;;;;;;;2.35;1.77;;;6.70;99.90;;;;;;5016306;28;20402;-78
2023/04/01 02:50:44;;;;;;;2.65;1.70;;;6.70;99.90;;;;;;5034156;28;20029;-78
2023/04/01 02:53:09;;;;;;;3.00;2.33;;;6.60;99.90;;;;;;5016300;28;20025;-78
2023/04/01 02:55:35;;;;;;;1.58;1.48;;;6.60;99.90;;;;;;5015803;28;20064;-78
2023/04/01 02:58:01;;;;;;;4.45;1.80;;;6.50;99.90;;;;;;5070704;22;20203;-75
2023/04/01 03:00:27;;;;;;;1.75;1.65;;;6.50;99.90;;;;;;5055500;28;20473;-74
2023/04/01 03:02:53;;;;;;;2.88;1.80;;;6.50;99.90;;;;;;5055459;28;20407;-74
2023/04/01 03:05:19;;;;;;;2.00;1.48;;;6.40;99.90;;;;;;5072683;28;20052;-74
2023/04/01 03:07:45;;;;;;;3.25;2.10;;;6.40;99.90;;;;;;5045782;28;20021;-74
2023/04/01 03:10:11;;;;;;;6.13;1.73;;;6.40;99.90;;;;;;5053236;28;20033;-74
2023/04/01 03:12:37;;;;;;;1.80;1.70;;;6.30;99.90;;;;;;5053202;28;20688;-74
2023/04/01 03:15:03;;;;;;;2.67;1.80;;;6.40;99.90;;;;;;5033213;28;20021;-74
2023/04/01 03:17:29;;;;;;;3.28;1.60;;;6.30;99.90;;;;;;5033993;28;20025;-74
2023/04/01 03:19:54;;;;;;;5.78;1.67;;;6.30;99.90;;;;;;5052408;28;20170;-74
2023/04/01 03:22:20;;;;;;;1.70;1.50;;;6.20;99.90;;;;;;5052638;28;20033;-74
2023/04/01 03:24:47;;;;;;;1.77;1.55;;;6.20;99.90;;;;;;5034576;28;20112;-74
2023/04/01 03:27:13;;;;;;;1.88;1.70;;;6.20;99.90;;;;;;5052567;28;20090;-74
2023/04/01 03:29:39;;;;;;;1.50;1.08;;;6.20;99.90;;;;;;5052588;28;20028;-75
2023/04/01 03:32:05;;;;;;;1.90;1.70;;;6.30;99.90;;;;;;5035093;28;20040;-74
2023/04/01 03:34:30;;;;;;;2.50;1.85;;;6.10;99.90;;;;;;5052171;28;20032;-75
2023/04/01 03:36:56;;;;;;;1.60;1.33;;;6.10;99.90;;;;;;5053069;28;20454;-74
2023/04/01 03:39:22;;;;;;;1.80;1.50;;;6.00;99.90;;;;;;5034294;28;20028;-74
2023/04/01 03:41:47;;;;;;;1.30;1.20;;;5.90;99.90;;;;;;5052615;28;20024;-74
2023/04/01 03:44:13;;;;;;;4.30;1.70;;;5.90;99.90;;;;;;5052352;28;20039;-74
2023/04/01 03:46:39;;;;;;;1.58;1.48;;;5.90;99.90;;;;;;5034229;28;20021;-74
2023/04/01 03:49:11;;;;;;;1.63;1.52;;;5.80;99.90;;;;;;5033769;28;20477;-74
2023/04/01 03:51:42;;;;;;;3.00;1.67;;;5.80;99.90;;;;;;5034852;28;20398;-74
2023/04/01 03:54:08;;;;;;;2.58;2.10;;;5.80;99.90;;;;;;5052889;28;20146;-75
2023/04/01 03:56:34;;;;;;;1.98;1.70;;;5.90;99.90;;;;;;5060755;28;20021;-75
2023/04/01 03:59:03;;;;;;;1.83;1.60;;;5.90;99.90;;;;;;5060967;28;20041;-75
2023/04/01 04:01:29;;;;;;;4.70;1.65;;;5.90;99.90;;;;;;5061717;28;20393;-75
2023/04/01 04:03:56;;;;;;;4.57;1.60;;;5.80;99.90;;;;;;5037819;28;20482;-74
2023/04/01 04:06:22;;;;;;;2.15;1.80;;;5.70;99.90;;;;;;5033827;28;20063;-74
2023/04/01 04:08:49;;;;;;;5.35;1.75;;;5.70;99.90;;;;;;5032805;28;20060;-74
2023/04/01 04:11:15;;;;;;;3.72;2.28;;;5.80;99.90;;;;;;5034478;28;20051;-74
2023/04/01 04:13:41;;;;;;;6.32;2.50;;;5.80;99.90;;;;;;5051850;28;20523;-75
2023/04/01 04:16:08;;;;;;;3.10;2.53;;;5.90;99.90;;;;;;5051784;28;20473;-74
2023/04/01 04:18:34;;;;;;;15.20;2.85;;;5.80;99.90;;;;;;5051656;28;20075;-74
2023/04/01 04:21:00;;;;;;;9.38;2.80;;;5.80;99.90;;;;;;5052114;28;20021;-74
2023/04/01 04:23:25;;;;;;;23.75;4.35;;;5.80;99.90;;;;;;5051957;28;20075;-74
2023/04/01 04:25:58;;;;;;;4.57;3.17;;;5.80;99.90;;;;;;5051574;28;20032;-74
2023/04/01 04:28:25;;;;;;;18.70;3.40;;;5.80;99.90;;;;;;5032821;28;20025;-74
2023/04/01 04:30:50;;;;;;;11.07;3.30;;;5.80;99.90;;;;;;5034088;28;20041;-74
2023/04/01 04:33:16;;;;;;;18.08;2.92;;;5.90;99.90;;;;;;5051782;28;20451;-74
2023/04/01 04:35:42;;;;;;;6.45;2.67;;;5.80;99.90;;;;;;5051482;28;20104;-74
2023/04/01 04:38:08;;;;;;;9.30;3.13;;;5.80;99.90;;;;;;5033241;28;20036;-73
2023/04/01 04:40:36;;;;;;;6.32;2.40;;;5.80;99.90;;;;;;5033976;28;20029;-75
2023/04/01 04:43:02;;;;;;;13.45;3.15;;;5.90;99.90;;;;;;5033832;28;20028;-74
2023/04/01 04:45:28;;;;;;;3.53;2.40;;;5.80;99.90;;;;;;5051365;28;20025;-74
2023/04/01 04:47:54;;;;;;;3.72;3.00;;;5.70;99.90;;;;;;5051376;28;20033;-74
2023/04/01 04:50:20;;;;;;;7.80;3.45;;;5.80;99.90;;;;;;5051667;28;20025;-74
2023/04/01 04:52:46;;;;;;;4.88;3.65;;;5.80;99.90;;;;;;5033590;28;20374;-74
2023/04/01 04:55:11;;;;;;;4.72;3.85;;;5.80;99.90;;;;;;5051415;28;20035;-74
2023/04/01 04:57:37;;;;;;;3.95;3.10;;;5.80;99.90;;;;;;5033253;28;20080;-74
2023/04/01 05:00:04;;;;;;;3.80;2.97;;;5.80;99.90;;;;;;5051615;28;20063;-74
2023/04/01 05:02:29;;;;;;;5.38;2.83;;;5.80;99.90;;;;;;5033636;28;20068;-74
2023/04/01 05:04:55;;;;;;;3.25;2.50;;;5.80;99.90;;;;;;5033041;28;20056;-75
2023/04/01 05:07:21;;;;;;;2.35;2.05;;;5.80;99.90;;;;;;5033180;28;20029;-73
2023/04/01 05:09:46;;;;;;;2.47;2.20;;;6.60;99.90;;;;;;5033590;28;20123;-74
2023/04/01 05:12:12;;;;;;;3.70;2.85;;;6.40;99.90;;;;;;5050239;28;20492;-74
2023/04/01 05:14:39;;;;;;;3.80;2.53;;;6.30;99.90;;;;;;5050867;28;20033;-74
2023/04/01 05:17:11;;;;;;;2.50;2.30;;;6.30;99.90;;;;;;5051340;28;20104;-75
2023/04/01 05:19:37;;;;;;;2.95;2.20;;;6.20;99.90;;;;;;5052640;28;20384;-74
2023/04/01 05:22:03;;;;;;;2.90;2.50;;;6.20;99.90;;;;;;5034564;28;20025;-74
2023/04/01 05:24:29;;;;;;;2.22;2.03;;;6.10;99.90;;;;;;5051015;28;20033;-74
2023/04/01 05:26:56;;;;;;;3.75;2.92;;;6.10;99.90;;;;;;5050967;28;20104;-75
2023/04/01 05:29:21;;;;;;;3.95;2.58;;;6.10;99.90;;;;;;5050855;28;20421;-74
2023/04/01 05:31:47;;;;;;;3.85;3.20;;;6.10;99.90;;;;;;5051205;28;20029;-74
2023/04/01 05:34:13;;;;;;;2.95;2.65;;;6.20;99.90;;;;;;5033241;28;20473;-73
2023/04/01 05:36:39;;;;;;;2.75;2.47;;;6.30;99.90;;;;;;5032828;28;20441;-75
2023/04/01 05:39:05;;;;;;;3.17;2.53;;;6.20;99.90;;;;;;5051526;28;20073;-75
2023/04/01 05:41:30;;;;;;;3.60;2.92;;;6.30;99.90;;;;;;5054713;28;20481;-74
2023/04/01 05:43:56;;;;;;;5.60;3.90;;;6.30;99.90;;;;;;5054689;28;20029;-75
2023/04/01 05:46:22;;;;;;;4.28;3.72;;;6.30;99.90;;;;;;5054754;28;20032;-74
2023/04/01 05:48:47;;;;;;;3.92;2.83;;;6.40;99.90;;;;;;5036413;28;20031;-74
2023/04/01 05:51:15;;;;;;;3.20;2.58;;;6.50;99.90;;;;;;5036738;28;20029;-74
2023/04/01 05:53:41;;;;;;;3.67;2.88;;;6.40;99.90;;;;;;5036366;28;20060;-74
2023/04/01 05:56:09;;;;;;;4.00;2.60;;;6.50;99.90;;;;;;5054037;28;20032;-74
2023/04/01 05:58:35;;;;;;;2.65;2.45;;;6.50;99.90;;;;;;5035993;28;20044;-74
2023/04/01 06:01:07;;;;;;;3.85;2.38;;;6.60;99.90;;;;;;5036514;28;20025;-73
2023/04/01 06:03:33;;;;;;;3.30;2.47;;;6.70;99.90;;;;;;5054238;28;20501;-74
2023/04/01 06:06:00;;;;;;;2.85;2.40;;;6.80;99.90;;;;;;5053897;28;20043;-74
2023/04/01 06:08:27;;;;;;;8.25;2.33;;;6.90;99.90;;;;;;5035730;28;20032;-75
2023/04/01 06:10:53;;;;;;;7.55;2.42;;;6.90;99.90;;;;;;5054449;28;20041;-74
2023/04/01 06:13:22;;;;;;;1.92;1.70;;;7.00;99.90;;;;;;5035151;28;20108;-74
2023/04/01 06:16:06;;;;;;;6.60;2.55;;;7.10;99.90;;;;;;5035889;28;20071;-74
2023/04/01 06:18:50;;;;;;;3.47;2.70;;;7.20;99.90;;;;;;5052793;28;20539;-74
2023/04/01 06:21:44;;;;;;;2.90;2.17;;;8.00;99.90;;;;;;5053979;28;20032;-74
2023/04/01 06:24:27;;;;;;;3.17;2.40;;;7.90;99.90;;;;;;5053787;28;20021;-74
2023/04/01 06:27:15;;;;;;;4.15;2.92;;;7.90;99.90;;;;;;5053530;28;20075;-75
2023/04/01 06:29:46;;;;;;;2.95;2.60;;;7.80;99.90;;;;;;5035884;28;20028;-74
2023/04/01 06:32:22;;;;;;;3.25;2.15;;;7.80;99.90;;;;;;5053681;28;20029;-74
2023/04/01 06:35:11;;;;;;;4.30;2.35;;;7.70;99.90;;;;;;5035382;28;20025;-74
2023/04/01 06:37:48;;;;;;;9.30;3.10;;;7.80;99.90;;;;;;5034851;28;20028;-74
2023/04/01 06:40:29;;;;;;;5.25;2.88;;;8.90;99.90;;;;;;5035572;28;20028;-74
2023/04/01 06:43:06;;;;;;;3.33;3.00;;;9.30;99.90;;;;;;5035568;28;20029;-73
2023/04/01 06:45:51;;;;;;;6.32;2.97;;;9.90;99.90;;;;;;5035118;28;20113;-74
2023/04/01 06:48:33;;;;;;;9.52;2.33;;;10.50;99.90;;;;;;5034929;28;20025;-73
2023/04/01 06:51:20;;;;;;;3.10;2.50;;;10.70;99.90;;;;;;5035173;28;20510;-74
2023/04/01 06:54:02;;;;;;;3.85;2.80;;;10.50;99.90;;;;;;5035140;28;20021;-74
2023/04/01 06:56:29;;;;;;;3.03;2.17;;;10.80;99.90;;;;;;5034898;28;20068;-74
2023/04/01 06:59:03;;;;;;;2.90;2.40;;;10.90;99.90;;;;;;5052247;28;20500;-74
2023/04/01 07:01:47;;;;;;;2.85;1.60;;;10.90;99.90;;;;;;5035282;28;20116;-75
2023/04/01 07:04:34;;;;;;;2.25;1.63;;;10.60;99.90;;;;;;5034896;28;20060;-75
2023/04/01 07:07:04;;;;;;;3.05;1.90;;;10.30;99.90;;;;;;5053162;28;20036;-75
2023/04/01 07:09:48;;;;;;;1.65;1.55;;;10.10;99.90;;;;;;5034953;28;20032;-74
2023/04/01 07:12:41;;;;;;;1.23;1.20;;;9.90;99.90;;;;;;5053077;28;20104;-75
2023/04/01 07:15:30;;;;;;;2.92;1.63;;;9.80;99.90;;;;;;5046828;28;20332;-74
2023/04/01 07:18:02;;;;;;;2.88;1.33;;;10.20;99.90;;;;;;5034584;28;20061;-75
2023/04/01 07:20:34;;;;;;;2.03;1.50;;;10.40;99.90;;;;;;5052879;28;20027;-74
2023/04/01 07:23:04;;;;;;;4.72;2.05;;;10.10;99.90;;;;;;5052400;28;20033;-74
2023/04/01 07:25:36;;;;;;;2.08;1.20;;;10.10;99.90;;;;;;5052195;28;20021;-74
2023/04/01 07:28:12;;;;;;;2.47;1.40;;;10.20;99.90;;;;;;5052246;28;20484;-74
2023/04/01 07:31:19;;;;;;;4.10;1.30;;;10.10;99.90;;;;;;5052517;28;20025;-75
2023/04/01 07:33:54;;;;;;;3.22;1.30;;;10.30;99.90;;;;;;5052066;28;20032;-73
2023/04/01 07:36:32;;;;;;;3.03;1.70;;;10.40;99.90;;;;;;5034345;28;20108;-75
2023/04/01 07:39:14;;;;;;;2.25;1.40;;;10.60;99.90;;;;;;5034059;28;20021;-74
2023/04/01 07:42:09;;;;;;;1.58;0.88;;;10.70;99.90;;;;;;5034341;28;20025;-74
2023/04/01 07:44:51;;;;;;;1.70;1.10;;;10.90;99.90;;;;;;5051933;28;20056;-74
2023/04/01 07:48:05;;;;;;;3.28;1.77;;;11.00;99.90;;;;;;5051782;28;20036;-75
2023/04/01 07:50:58;;;;;;;1.90;1.25;;;11.10;99.90;;;;;;5027149;28;20047;-74
2023/04/01 07:53:27;;;;;;;3.60;1.30;;;11.00;99.90;;;;;;5052047;28;20017;-75
2023/04/01 07:56:16;;;;;;;4.05;1.00;;;10.90;99.90;;;;;;5051762;28;20159;-75
2023/04/01 07:58:44;;;;;;;5.53;1.30;;;11.10;99.90;;;;;;5022958;28;20131;-75
2023/04/01 08:01:41;;;;;;;1.95;1.15;;;11.20;99.90;;;;;;5033752;28;20021;-76
2023/04/01 08:04:09;;;;;;;2.55;1.20;;;11.30;99.90;;;;;;5034033;28;20025;-76
2023/04/01 08:06:57;;;;;;;1.50;1.00;;;11.40;99.90;;;;;;5033764;28;20028;-78
2023/04/01 08:09:29;;;;;;;3.55;1.45;;;11.50;99.90;;;;;;5051354;28;20025;-77
2023/04/01 08:12:23;;;;;;;1.60;1.48;;;11.70;99.90;;;;;;5033764;28;20124;-77
2023/04/01 08:15:10;;;;;;;1.10;1.00;;;11.90;99.90;;;;;;5049331;28;20025;-77
2023/04/01 08:17:44;;;;;;;4.78;0.90;;;12.10;99.90;;;;;;5051429;28;20028;-77
2023/04/01 08:20:29;;;;;;;1.98;1.17;;;12.20;99.90;;;;;;5051758;28;20018;-77
2023/04/01 08:23:15;;;;;;;1.95;0.82;;;12.20;99.90;;;;;;5051709;28;20108;-75
2023/04/01 08:25:52;;;;;;;2.80;1.00;;;12.30;99.90;;;;;;5051638;28;20192;-76
2023/04/01 08:28:27;;;;;;;2.40;1.17;;;12.50;99.90;;;;;;5051323;28;20029;-77
2023/04/01 08:31:00;;;;;;;;;;;12.60;99.90;;;;;;5034504;28;20032;-76
2023/04/01 08:33:27;;;;;;;6.68;3.30;;;12.80;99.90;;;;;;5051481;28;19909;-76
2023/04/01 08:36:09;;;;;;;4.22;0.70;;;13.10;99.90;;;;;;5050754;28;20112;-74
2023/04/01 08:39:05;;;;;;;0.60;0.55;;;13.50;99.90;;;;;;5039405;28;20025;-75
2023/04/01 08:41:42;;;;;;;1.47;0.80;;;13.80;99.40;;;;;;5019906;28;20040;-75
2023/04/01 08:44:27;;;;;;;0.82;0.43;;;13.90;98.30;;;;;;5040901;28;20273;-75
2023/04/01 08:47:15;;;;;;;0.35;0.28;;;14.20;99.90;;;;;;5051294;28;20485;-74
2023/04/01 08:49:52;;;;;;;1.08;0.50;;;14.30;96.90;;;;;;5043562;28;20053;-75
2023/04/01 08:52:33;;;;;;;4.95;0.55;;;14.30;95.80;;;;;;5050931;28;20542;-76
2023/04/01 08:55:18;;;;;;;0.28;0.28;;;14.50;94.00;;;;;;5051298;28;20371;-74
2023/04/01 08:58:02;;;;;;;1.52;1.42;;;14.40;93.80;;;;;;5068628;22;20072;-78
2023/04/01 09:00:42;;;;;;;5.15;0.65;;;14.30;94.90;;;;;;5036686;28;20613;-78
2023/04/01 09:03:45;;;;;;;0.45;0.28;;;14.30;93.50;;;;;;5054259;28;20025;-78
2023/04/01 09:06:29;;;;;;;1.70;0.32;;;14.40;93.00;;;;;;5054036;28;20033;-78
2023/04/01 09:09:09;;;;;;;0.32;0.30;;;14.40;92.40;;;;;;5054352;28;20021;-77
2023/04/01 09:11:59;;;;;;;0.30;0.28;;;14.40;90.70;;;;;;5052712;28;20025;-76
2023/04/01 09:14:37;;;;;;;3.83;0.30;;;14.30;90.70;;;;;;5039450;28;20025;-76
2023/04/01 09:17:31;;;;;;;0.28;0.28;;;14.40;90.60;;;;;;5040745;28;20025;-76
2023/04/01 09:20:27;;;;;;;0.40;0.20;;;14.60;92.80;;;;;;5058270;28;20044;-77
2023/04/01 09:23:20;;;;;;;1.35;0.30;;;14.60;84.70;;;;;;5040411;28;20472;-77
2023/04/01 09:25:56;;;;;;;0.40;0.20;;;14.70;91.10;;;;;;5057906;28;20052;-77
2023/04/01 09:28:34;;;;;;;3.20;0.93;;;14.80;85.40;;;;;;5040320;28;20103;-77
2023/04/01 09:31:27;;;;;;;2.03;0.22;;;14.80;88.10;;;;;;5040731;28;20025;-77
2023/04/01 09:34:21;;;;;;;0.30;0.30;;;14.80;86.00;;;;;;5057537;28;20025;-77
2023/04/01 09:37:07;;;;;;;0.20;0.10;;;14.70;83.10;;;;;;5058385;28;20682;-77
2023/04/01 09:39:37;;;;;;;0.10;0.10;;;14.60;83.10;;;;;;5057646;28;20032;-78
2023/04/01 09:42:23;;;;;;;0.32;0.30;;;14.70;82.70;;;;;;5040734;28;20477;-77
2023/04/01 09:45:00;;;;;;;0.95;0.40;;;14.90;84.80;;;;;;5039941;28;20033;-77
2023/04/01 09:47:50;;;;;;;0.55;0.40;;;15.10;82.60;;;;;;5039086;28;20025;-77
2023/04/01 09:50:25;;;;;;;0.15;0.10;;;15.40;82.10;;;;;;5057064;28;20438;-77
2023/04/01 09:53:03;;;;;;;1.75;0.30;;;15.50;74.70;;;;;;5039627;28;20032;-77
2023/04/01 09:55:40;;;;;;;0.13;0.13;;;15.30;73.40;;;;;;5038933;28;20021;-78
2023/04/01 09:58:30;;;;;;;1.23;0.38;;;15.20;76.00;;;;;;5057152;28;20366;-76
2023/04/01 10:01:15;;;;;;;0.32;0.32;;;15.20;75.60;;;;;;5057704;28;20049;-76
2023/04/01 10:03:51;;;;;;;0.20;0.10;;;15.20;76.90;;;;;;5055608;28;20024;-76
2023/04/01 10:06:38;;;;;;;0.20;0.13;;;15.30;75.60;;;;;;5037350;28;20017;-77
2023/04/01 10:09:18;;;;;;;0.40;0.13;;;15.30;73.20;;;;;;5038044;28;20132;-77
2023/04/01 10:12:20;;;;;;;0.50;0.20;;;15.20;76.60;;;;;;5036944;28;20033;-76
2023/04/01 10:15:22;;;;;;;1.30;1.20;;;15.20;77.10;;;;;;5057258;28;20489;-78
2023/04/01 10:18:32;;;;;;;0.63;0.45;;;15.10;78.60;;;;;;5038213;28;20509;-78
2023/04/01 10:21:14;;;;;;;1.08;0.20;;;15.00;80.30;;;;;;5031309;28;20029;-77
2023/04/01 10:24:01;;;;;;;0.30;0.30;;;15.10;77.10;;;;;;5039960;28;20025;-77
2023/04/01 10:26:49;;;;;;;0.50;0.10;;;15.10;76.20;;;;;;5055921;28;20100;-77
2023/04/01 10:29:42;;;;;;;0.22;0.05;;;15.10;76.60;;;;;;5056574;28;20055;-77
2023/04/01 10:32:47;;;;;;;0.90;0.30;;;15.10;78.20;;;;;;5039080;28;20025;-78
2023/04/01 10:35:50;;;;;;;0.20;0.08;;;15.10;79.60;;;;;;5038641;28;20495;-77
2023/04/01 10:38:31;;;;;;;0.60;0.30;;;14.90;76.60;;;;;;5055058;28;20025;-76
2023/04/01 10:41:17;;;;;;;4.75;2.25;;;14.80;76.30;;;;;;5054388;28;20028;-78
2023/04/01 10:44:11;;;;;;;2.42;1.52;;;14.70;79.40;;;;;;5038719;28;20025;-75
2023/04/01 10:46:49;;;;;;;0.57;0.57;;;14.70;78.70;;;;;;5038391;28;20033;-78
2023/04/01 10:49:38;;;;;;;0.45;0.25;;;14.60;78.70;;;;;;5055973;28;20111;-78
2023/04/01 10:52:30;;;;;;;0.20;0.20;;;14.70;80.50;;;;;;5056473;28;20021;-77
2023/04/01 10:55:15;;;;;;;0.17;0.17;;;14.60;83.40;;;;;;5056262;28;20048;-76
2023/04/01 10:57:59;;;;;;;4.32;0.70;;;14.40;83.70;;;;;;5038260;28;20470;-77
2023/04/01 11:00:52;;;;;;;0.10;0.10;;;14.40;86.80;;;;;;5056772;28;20017;-77
2023/04/01 11:03:45;;;;;;;1.20;0.20;;;14.50;86.20;;;;;;5056263;28;20060;-76
2023/04/01 11:06:25;;;;;;;0.20;0.20;;;14.50;85.60;;;;;;5054925;28;20143;-77
2023/04/01 11:09:31;;;;;;;0.25;0.10;;;14.50;85.20;;;;;;5037017;28;20025;-77
2023/04/01 11:12:33;;;;;;;0.65;0.32;;;14.40;85.50;;;;;;5056070;28;20551;-77
2023/04/01 11:15:02;;;;;;;2.78;0.30;;;14.40;86.30;;;;;;5036253;28;20094;-77
2023/04/01 11:17:50;;;;;;;0.20;0.20;;;14.60;86.00;;;;;;5036683;28;20028;-77
2023/04/01 11:20:34;;;;;;;0.35;0.20;;;14.70;82.30;;;;;;5056180;28;20025;-77
2023/04/01 11:23:18;;;;;;;0.40;0.05;;;14.80;82.10;;;;;;5056653;28;20056;-77
2023/04/01 11:25:46;;;;;;;0.20;0.10;;;14.90;82.40;;;;;;5056235;28;20048;-77
2023/04/01 11:28:35;;;;;;;0.60;0.20;;;15.10;80.60;;;;;;5038196;28;20088;-77
2023/04/01 11:31:14;;;;;;;0.50;0.15;;;15.10;81.10;;;;;;5056538;28;20485;-78
2023/04/01 11:33:49;;;;;;;4.40;3.35;;;15.20;79.20;;;;;;5055548;28;20025;-77
2023/04/01 11:36:23;;;;;;;0.80;0.60;;;15.20;77.90;;;;;;5055034;28;20026;-77
2023/04/01 11:39:21;;;;;;;2.92;0.20;;;15.20;80.30;;;;;;5055634;28;20406;-77
2023/04/01 11:41:55;;;;;;;0.10;0.10;;;15.10;80.40;;;;;;5038368;28;20025;-78
2023/04/01 11:44:27;;;;;;;0.10;0.10;;;15.00;79.80;;;;;;5055860;28;20029;-75
2023/04/01 11:47:11;;;;;;;0.95;0.57;;;15.00;79.10;;;;;;5056324;28;20093;-77
2023/04/01 11:49:46;;;;;;;0.40;0.17;;;14.90;79.00;;;;;;5038170;28;20025;-77
2023/04/01 11:52:49;;;;;;;8.63;5.20;;;15.00;79.00;;;;;;5056440;28;20021;-77
2023/04/01 11:56:06;;;;;;;0.80;0.80;;;15.00;80.10;;;;;;4950610;28;20274;-77
2023/04/01 11:58:45;;;;;;;1.48;0.90;;;15.20;78.70;;;;;;5000774;28;20041;-76
2023/04/01 12:01:26;;;;;;;1.20;0.40;;;15.30;79.00;;;;;;5038891;28;20486;-77
2023/04/01 12:04:22;;;;;;;0.30;0.30;;;15.30;78.80;;;;;;5056347;28;20485;-77
2023/04/01 12:07:20;;;;;;;0.30;0.30;;;15.30;77.60;;;;;;5038104;28;20474;-76
2023/04/01 12:10:27;;;;;;;0.65;0.50;;;15.40;76.60;;;;;;5038379;28;20288;-77
2023/04/01 12:12:52;;;;;;;;;;;15.30;73.70;;;;;;5056556;28;20426;-77
2023/04/01 12:15:45;;;;;;;0.10;0.10;;;15.30;75.00;;;;;;5037393;28;19966;-76
2023/04/01 12:18:26;;;;;;;0.10;0.10;;;15.30;74.00;;;;;;5055456;28;20024;-77
2023/04/01 12:21:03;;;;;;;0.20;0.20;;;15.40;74.40;;;;;;5055859;28;20032;-77
2023/04/01 12:24:13;;;;;;;0.32;0.32;;;15.50;73.60;;;;;;5056019;28;20388;-76
2023/04/01 12:26:54;;;;;;;1.30;0.10;;;15.40;75.40;;;;;;5049785;28;20044;-77
2023/04/01 12:29:38;;;;;;;0.20;0.10;;;15.50;74.00;;;;;;5037003;28;20025;-78
2023/04/01 12:32:24;;;;;;;0.03;0.03;;;15.50;74.10;;;;;;5037948;28;20124;-77
2023/04/01 12:35:14;;;;;;;0.35;0.10;;;15.60;73.90;;;;;;5036972;28;20469;-77
2023/04/01 12:38:18;;;;;;;0.13;0.13;;;15.60;72.50;;;;;;5036506;28;20086;-77
2023/04/01 12:41:10;;;;;;;0.05;0.05;;;15.50;73.50;;;;;;5037031;28;20163;-77
2023/04/01 12:44:00;;;;;;;0.10;0.10;;;15.50;73.60;;;;;;5011320;28;20106;-77
2023/04/01 12:46:32;;;;;;;0.20;0.10;;;15.50;70.50;;;;;;5054545;28;20029;-77
2023/04/01 12:49:06;;;;;;;2.20;0.00;;;15.50;68.50;;;;;;5057647;28;20556;-77
2023/04/01 12:51:37;;;;;;;0.00;0.00;;;15.50;71.60;;;;;;5058098;28;20501;-77
2023/04/01 12:54:26;;;;;;;0.13;0.10;;;15.40;71.90;;;;;;5040407;28;20029;-76
2023/04/01 12:57:13;;;;;;;0.22;0.00;;;15.40;71.70;;;;;;5058156;28;20363;-76
2023/04/01 12:59:59;;;;;;;0.00;0.00;;;15.50;75.40;;;;;;5058027;28;20082;-76
2023/04/01 13:02:30;;;;;;;0.08;0.08;;;15.50;73.40;;;;;;5040530;28;20021;-78
2023/04/01 13:05:15;;;;;;;0.25;0.00;;;15.50;72.80;;;;;;5038994;28;20385;-76
2023/04/01 13:07:43;;;;;;;0.13;0.10;;;15.50;72.20;;;;;;5055334;28;20104;-78
2023/04/01 13:10:37;;;;;;;1.38;0.77;;;15.50;73.20;;;;;;5056868;28;20029;-78
2023/04/01 13:13:06;;;;;;;0.93;0.30;;;15.50;72.00;;;;;;5056509;28;20471;-76
2023/04/01 13:15:46;;;;;;;0.00;0.00;;;15.50;69.70;;;;;;5039407;28;20047;-77
2023/04/01 13:18:52;;;;;;;0.08;0.08;;;15.50;70.30;;;;;;5057376;28;20083;-77
2023/04/01 13:21:31;;;;;;;0.10;0.10;;;15.40;67.80;;;;;;5043977;28;20079;-76
2023/04/01 13:24:02;;;;;;;0.75;0.30;;;15.50;68.00;;;;;;5058367;28;20546;-77
2023/04/01 13:26:40;;;;;;;0.10;0.00;;;15.50;69.60;;;;;;5040130;28;20082;-78
2023/04/01 13:29:17;;;;;;;0.10;0.10;;;15.50;68.50;;;;;;5058529;28;20031;-76
2023/04/01 13:32:17;;;;;;;0.00;0.00;;;15.60;67.20;;;;;;5040069;28;20021;-77
2023/04/01 13:35:04;;;;;;;0.50;0.00;;;15.60;66.00;;;;;;5039313;28;20029;-76
2023/04/01 13:37:53;;;;;;;0.00;0.00;;;15.60;67.40;;;;;;5039950;28;20481;-77
2023/04/01 13:40:56;;;;;;;0.10;0.10;;;15.70;66.30;;;;;;5058125;28;20021;-76
2023/04/01 13:43:36;;;;;;;1.45;0.10;;;15.60;66.10;;;;;;5058143;28;20104;-77